الصفحة الرئيسية
METAR-TAF:

METAR-TAF

مطار :

فيكتوريا, ماهيه, سيشيل

مطار سيشل الدولي

دائرة عرض: 04-40S, خط طول: 055-31E, ارتفاع: 3 متر

مراقبة الطقس الحالي

تاريخ ووقت الإصدار 23 دقيقة قبل الساعة 16:00UTC
ريح 3 عقدةمن اتجاهات متغيرة
درجة الحرارة 28°درجة مئوية
الرطوبة 79%
ضغط 1010 hPa
الرؤية 10 كم أو أكثر
غيوم قليلة على ارتفاع 2000 قدم

METAR: FSIA 251600Z VRB03KT 9999 FEW020 28/24 Q1010 NOSIG

زمن: 20:23 (16:23 UTC)

توقعات

تاريخ ووقت الإصدار 5ساعات و 36 دقيقة قبل الساعة 10:47UTC
التوقعات صالحة من25 الساعة 12 UTC إلى 26 الساعة 12 UTC
ريح 5 عقدة من الشرق/الجنوب الشرقي
الرؤية 10 كم أو أكثر
غيوم قليلة على ارتفاع 2000 قدم, مزنة ركامية.
غيوم متفرقة على ارتفاع 2200 قدم
مؤقت
من 25 الساعة 12 UTC إلى 25 الساعة 18 UTC
الرؤية: 8000 متر
غيوم قليلة على ارتفاع 1900 قدم, مزنة ركامية.
غيوم مفككة على ارتفاع 2000 قدم
أصبح
من 26 الساعة 02 UTC إلى 26 الساعة 04 UTC
ريح 5 عقدة من الجنوب الغربي
غيوم متفرقة على ارتفاع 2400 قدم

TAF: FSIA 251047Z 2512/2612 12005KT 9999 FEW020CB SCT022 TEMPO 2512/2518 8000 SHRA/TSRA FEW019CB BKN020 BECMG 2602/2604 22005KT SCT024

أرصاد الطقس والتوقعات من أكثر من 4000 مطار (تقارير الطقس للمطار METAR والتنبؤ بالطقس بالمطارTAF).

المحطات المتاحة هي النقط الصفراء والحمراء على الخريطة.

حرك المؤشر فوق النقطة لمعرفة اسم المحطة.

ثم انقر لمعرفة أرصاد وتوقعات الطقس.

لتغيير الخارطة: اضغط على الأزرار الخضراء مع رمز الصليب الأسود للتكبير. على الزر الأخضر مع شرطة للتصغير، أو على الأسهم الخضراء للخرائط المجاورة.


METAR-TAF: